DAL855 KATL-KBOS
Flight info
| Callsign | DAL855 |
|---|---|
| Flight time | 1h 54m |
| Altitude | 37000 |
| Route | PLMMR3 BURGG Q22 RBV Q419 JFK ROBUC3 |
| Aircraft | B738/M-SDE2E3FGHIRWXY/LB1 |
Departure
| Time | 2026-05-07 03:35 |
|---|---|
| Airport | Hartsfield Jackson Atlanta International Airport (KATL) |
Arrival
| Time | 2026-05-07 05:30 |
|---|---|
| Airport | Boston Logan International Airport (KBOS) |
| Time | Latitude | Longitude | Altitude | Speed | Heading |
|---|---|---|---|---|---|
| 2026-05-07 02:58 | 33.64016 | -84.43866 | 1021 ft | 0 kts | 270° |
| 2026-05-07 03:07 | 33.64015 | -84.43852 | 1021 ft | 2 kts | 270° |
| 2026-05-07 03:07 | 33.64015 | -84.43832 | 1020 ft | 2 kts | 270° |
| 2026-05-07 03:08 | 33.64015 | -84.43813 | 1020 ft | 2 kts | 263° |
| 2026-05-07 03:08 | 33.64017 | -84.43800 | 1020 ft | 2 kts | 234° |
| 2026-05-07 03:08 | 33.64029 | -84.43791 | 1020 ft | 1 kts | 176° |
| 2026-05-07 03:08 | 33.64030 | -84.43791 | 1020 ft | 0 kts | 176° |
| 2026-05-07 03:11 | 33.64025 | -84.43790 | 1020 ft | 2 kts | 176° |
| 2026-05-07 03:11 | 33.63983 | -84.43787 | 1019 ft | 9 kts | 177° |
| 2026-05-07 03:11 | 33.63912 | -84.43784 | 1019 ft | 11 kts | 179° |
| 2026-05-07 03:12 | 33.63832 | -84.43787 | 1019 ft | 13 kts | 181° |
| 2026-05-07 03:12 | 33.63748 | -84.43787 | 1018 ft | 0 kts | 180° |
| 2026-05-07 03:23 | 33.63747 | -84.43680 | 1016 ft | 0 kts | 180° |
| 2026-05-07 03:23 | 33.63738 | -84.43683 | 1016 ft | 6 kts | 199° |
| 2026-05-07 03:24 | 33.63700 | -84.43701 | 1017 ft | 6 kts | 170° |
| 2026-05-07 03:24 | 33.63665 | -84.43638 | 1016 ft | 14 kts | 93° |
| 2026-05-07 03:24 | 33.63663 | -84.43477 | 1010 ft | 25 kts | 89° |
| 2026-05-07 03:24 | 33.63663 | -84.43359 | 1008 ft | 12 kts | 91° |
| 2026-05-07 03:25 | 33.63663 | -84.43258 | 1008 ft | 12 kts | 88° |
| 2026-05-07 03:25 | 33.63665 | -84.43159 | 1008 ft | 12 kts | 89° |
| 2026-05-07 03:25 | 33.63666 | -84.43048 | 1007 ft | 15 kts | 91° |
| 2026-05-07 03:25 | 33.63665 | -84.42899 | 1005 ft | 20 kts | 90° |
| 2026-05-07 03:26 | 33.63661 | -84.42724 | 1007 ft | 22 kts | 93° |
| 2026-05-07 03:26 | 33.63656 | -84.42538 | 1007 ft | 24 kts | 90° |
| 2026-05-07 03:26 | 33.63657 | -84.42319 | 1004 ft | 27 kts | 89° |
| 2026-05-07 03:26 | 33.63656 | -84.42083 | 1002 ft | 29 kts | 90° |
| 2026-05-07 03:27 | 33.63657 | -84.41831 | 995 ft | 31 kts | 90° |
| 2026-05-07 03:27 | 33.63658 | -84.41582 | 996 ft | 29 kts | 91° |
| 2026-05-07 03:27 | 33.63653 | -84.41340 | 986 ft | 28 kts | 90° |
| 2026-05-07 03:27 | 33.63656 | -84.41118 | 993 ft | 26 kts | 90° |
| 2026-05-07 03:28 | 33.63653 | -84.40955 | 988 ft | 7 kts | 101° |
| 2026-05-07 03:28 | 33.63629 | -84.40918 | 988 ft | 0 kts | 157° |
| 2026-05-07 03:28 | 33.63606 | -84.40910 | 991 ft | 8 kts | 170° |
| 2026-05-07 03:29 | 33.63568 | -84.40909 | 989 ft | 0 kts | 180° |
| 2026-05-07 03:32 | 33.63531 | -84.40909 | 988 ft | 9 kts | 185° |
| 2026-05-07 03:33 | 33.63481 | -84.40943 | 991 ft | 8 kts | 234° |
| 2026-05-07 03:33 | 33.63472 | -84.40986 | 991 ft | 0 kts | 270° |
| 2026-05-07 03:35 | 33.63471 | -84.41136 | 987 ft | 54 kts | 269° |
| 2026-05-07 03:35 | 33.63467 | -84.41910 | 998 ft | 129 kts | 270° |
| 2026-05-07 03:35 | 33.63433 | -84.43207 | 1219 ft | 172 kts | 264° |
| 2026-05-07 03:35 | 33.63319 | -84.44730 | 1824 ft | 197 kts | 254° |
| 2026-05-07 03:36 | 33.63273 | -84.46387 | 2746 ft | 191 kts | 264° |
| 2026-05-07 03:36 | 33.63134 | -84.47882 | 3661 ft | 180 kts | 243° |
| 2026-05-07 03:36 | 33.62582 | -84.49267 | 4169 ft | 187 kts | 241° |
| 2026-05-07 03:36 | 33.61995 | -84.50698 | 4693 ft | 194 kts | 240° |
| 2026-05-07 03:37 | 33.61404 | -84.52139 | 5249 ft | 199 kts | 242° |
| 2026-05-07 03:37 | 33.60786 | -84.53647 | 5697 ft | 209 kts | 242° |
| 2026-05-07 03:37 | 33.60125 | -84.55258 | 6108 ft | 219 kts | 243° |
| 2026-05-07 03:37 | 33.59236 | -84.56775 | 6625 ft | 228 kts | 224° |
| 2026-05-07 03:38 | 33.57930 | -84.57847 | 7349 ft | 229 kts | 211° |
| 2026-05-07 03:38 | 33.56387 | -84.58432 | 7971 ft | 240 kts | 193° |
| 2026-05-07 03:38 | 33.54693 | -84.58516 | 8613 ft | 246 kts | 187° |
| 2026-05-07 03:38 | 33.52967 | -84.58500 | 9203 ft | 250 kts | 186° |
| 2026-05-07 03:39 | 33.51211 | -84.58480 | 9818 ft | 255 kts | 185° |
| 2026-05-07 03:39 | 33.49473 | -84.57891 | 9893 ft | 274 kts | 153° |
| 2026-05-07 03:39 | 33.48178 | -84.56171 | 9938 ft | 290 kts | 128° |
| 2026-05-07 03:39 | 33.47143 | -84.54016 | 9998 ft | 311 kts | 124° |
| 2026-05-07 03:40 | 33.46154 | -84.51545 | 10083 ft | 344 kts | 115° |
| 2026-05-07 03:40 | 33.45629 | -84.48647 | 10130 ft | 364 kts | 96° |
| 2026-05-07 03:40 | 33.45586 | -84.45640 | 10237 ft | 366 kts | 92° |
| 2026-05-07 03:40 | 33.45603 | -84.42579 | 10343 ft | 372 kts | 92° |
| 2026-05-07 03:41 | 33.45608 | -84.39469 | 11018 ft | 374 kts | 92° |
| 2026-05-07 03:41 | 33.45634 | -84.36347 | 11812 ft | 376 kts | 86° |
| 2026-05-07 03:41 | 33.46312 | -84.33317 | 12513 ft | 380 kts | 63° |
| 2026-05-07 03:41 | 33.47807 | -84.30747 | 13270 ft | 376 kts | 43° |
| 2026-05-07 03:42 | 33.49637 | -84.28501 | 13987 ft | 378 kts | 41° |
| 2026-05-07 03:42 | 33.51516 | -84.26265 | 14561 ft | 383 kts | 40° |
| 2026-05-07 03:42 | 33.53422 | -84.24004 | 15153 ft | 387 kts | 40° |
| 2026-05-07 03:42 | 33.55341 | -84.21712 | 15778 ft | 391 kts | 40° |
| 2026-05-07 03:43 | 33.57264 | -84.19401 | 16371 ft | 395 kts | 40° |
| 2026-05-07 03:43 | 33.59219 | -84.17035 | 16964 ft | 399 kts | 40° |
| 2026-05-07 03:43 | 33.61174 | -84.14655 | 17549 ft | 403 kts | 39° |
| 2026-05-07 03:43 | 33.63149 | -84.12244 | 18141 ft | 408 kts | 39° |
| 2026-05-07 03:44 | 33.65158 | -84.09790 | 18674 ft | 412 kts | 39° |
| 2026-05-07 03:44 | 33.67174 | -84.07323 | 19188 ft | 415 kts | 39° |
| 2026-05-07 03:44 | 33.69209 | -84.04829 | 19698 ft | 419 kts | 39° |
| 2026-05-07 03:44 | 33.71261 | -84.02312 | 20202 ft | 423 kts | 39° |
| 2026-05-07 03:45 | 33.73304 | -83.99803 | 20707 ft | 427 kts | 39° |
| 2026-05-07 03:45 | 33.75385 | -83.97242 | 21201 ft | 431 kts | 39° |
| 2026-05-07 03:45 | 33.77488 | -83.94650 | 21722 ft | 434 kts | 39° |
| 2026-05-07 03:45 | 33.79605 | -83.92042 | 22205 ft | 437 kts | 39° |
| 2026-05-07 03:46 | 33.81740 | -83.89415 | 22711 ft | 441 kts | 39° |
| 2026-05-07 03:46 | 33.83892 | -83.86765 | 23185 ft | 444 kts | 39° |
| 2026-05-07 03:46 | 33.86057 | -83.84097 | 23645 ft | 447 kts | 39° |
| 2026-05-07 03:46 | 33.88243 | -83.81401 | 24028 ft | 450 kts | 39° |
| 2026-05-07 03:47 | 33.90441 | -83.78688 | 24441 ft | 453 kts | 39° |
| 2026-05-07 03:47 | 33.92644 | -83.75968 | 24845 ft | 455 kts | 39° |
| 2026-05-07 03:47 | 33.94839 | -83.73254 | 25224 ft | 458 kts | 40° |
| 2026-05-07 03:47 | 33.96972 | -83.70357 | 25601 ft | 465 kts | 46° |
| 2026-05-07 03:48 | 33.98947 | -83.67241 | 25976 ft | 469 kts | 49° |
| 2026-05-07 03:48 | 34.00856 | -83.64026 | 26330 ft | 473 kts | 50° |
| 2026-05-07 03:48 | 34.02754 | -83.60779 | 26679 ft | 475 kts | 50° |
| 2026-05-07 03:48 | 34.04653 | -83.57559 | 27016 ft | 478 kts | 50° |
| 2026-05-07 03:49 | 34.06607 | -83.54294 | 27366 ft | 480 kts | 49° |
| 2026-05-07 03:49 | 34.08583 | -83.51032 | 27712 ft | 482 kts | 49° |
| 2026-05-07 03:49 | 34.10578 | -83.47764 | 28049 ft | 484 kts | 49° |
| 2026-05-07 03:49 | 34.12588 | -83.44483 | 28380 ft | 487 kts | 49° |
| 2026-05-07 03:50 | 34.14544 | -83.41293 | 28674 ft | 490 kts | 49° |
| 2026-05-07 03:50 | 34.16570 | -83.37981 | 28976 ft | 492 kts | 49° |
| 2026-05-07 03:50 | 34.18614 | -83.34630 | 29273 ft | 495 kts | 49° |
| 2026-05-07 03:50 | 34.20631 | -83.31319 | 29569 ft | 497 kts | 50° |
| 2026-05-07 03:51 | 34.22710 | -83.27899 | 29877 ft | 499 kts | 50° |
| 2026-05-07 03:51 | 34.24741 | -83.24554 | 30138 ft | 501 kts | 50° |
| 2026-05-07 03:51 | 34.26809 | -83.21146 | 30373 ft | 504 kts | 50° |
| 2026-05-07 03:51 | 34.28886 | -83.17721 | 30602 ft | 506 kts | 50° |
| 2026-05-07 03:52 | 34.30971 | -83.14283 | 30844 ft | 508 kts | 49° |
| 2026-05-07 03:52 | 34.33068 | -83.10838 | 31084 ft | 510 kts | 49° |
| 2026-05-07 03:52 | 34.35185 | -83.07384 | 31321 ft | 511 kts | 49° |
| 2026-05-07 03:52 | 34.37308 | -83.03923 | 31558 ft | 513 kts | 49° |
| 2026-05-07 03:53 | 34.39433 | -83.00450 | 31855 ft | 513 kts | 49° |
| 2026-05-07 03:53 | 34.41551 | -82.96980 | 32190 ft | 512 kts | 49° |
| 2026-05-07 03:53 | 34.43668 | -82.93508 | 32509 ft | 512 kts | 49° |
| 2026-05-07 03:53 | 34.45786 | -82.90031 | 32805 ft | 512 kts | 49° |
| 2026-05-07 03:54 | 34.47900 | -82.86558 | 33086 ft | 512 kts | 49° |
| 2026-05-07 03:54 | 34.49995 | -82.83113 | 33357 ft | 513 kts | 49° |
| 2026-05-07 03:54 | 34.52110 | -82.79632 | 33631 ft | 513 kts | 49° |
| 2026-05-07 03:54 | 34.54236 | -82.76127 | 33915 ft | 513 kts | 49° |
| 2026-05-07 03:55 | 34.56359 | -82.72626 | 34143 ft | 514 kts | 49° |
| 2026-05-07 03:55 | 34.58480 | -82.69124 | 34343 ft | 515 kts | 49° |
| 2026-05-07 03:55 | 34.60604 | -82.65614 | 34547 ft | 516 kts | 49° |
| 2026-05-07 03:55 | 34.62732 | -82.62091 | 34738 ft | 517 kts | 49° |
| 2026-05-07 03:56 | 34.64834 | -82.58611 | 34920 ft | 518 kts | 49° |
| 2026-05-07 03:56 | 34.66968 | -82.55072 | 35113 ft | 520 kts | 49° |
| 2026-05-07 03:56 | 34.69086 | -82.51506 | 35302 ft | 521 kts | 49° |
| 2026-05-07 03:56 | 34.71194 | -82.47916 | 35509 ft | 522 kts | 49° |
| 2026-05-07 03:57 | 34.73297 | -82.44313 | 35670 ft | 524 kts | 49° |
| 2026-05-07 03:57 | 34.75408 | -82.40691 | 35842 ft | 525 kts | 49° |
| 2026-05-07 03:57 | 34.77525 | -82.37061 | 35973 ft | 527 kts | 49° |
| 2026-05-07 03:58 | 34.81069 | -82.30989 | 36224 ft | 530 kts | 49° |
| 2026-05-07 03:58 | 34.83213 | -82.27315 | 36374 ft | 532 kts | 49° |
| 2026-05-07 03:58 | 34.85355 | -82.23641 | 36523 ft | 533 kts | 48° |
| 2026-05-07 03:58 | 34.87503 | -82.19954 | 36673 ft | 535 kts | 48° |
| 2026-05-07 03:59 | 34.89657 | -82.16252 | 36793 ft | 537 kts | 48° |
| 2026-05-07 03:59 | 34.91819 | -82.12533 | 36928 ft | 538 kts | 48° |
| 2026-05-07 03:59 | 34.93987 | -82.08797 | 36994 ft | 540 kts | 47° |
| 2026-05-07 04:00 | 34.98341 | -82.01283 | 36988 ft | 542 kts | 47° |
| 2026-05-07 04:00 | 35.02670 | -81.93793 | 36993 ft | 540 kts | 47° |
| 2026-05-07 04:01 | 35.07059 | -81.86452 | 36991 ft | 536 kts | 45° |
| 2026-05-07 04:01 | 35.11593 | -81.79244 | 36996 ft | 534 kts | 44° |
| 2026-05-07 04:02 | 35.16118 | -81.72035 | 36999 ft | 534 kts | 44° |
| 2026-05-07 04:02 | 35.20614 | -81.64796 | 37002 ft | 534 kts | 44° |
| 2026-05-07 04:03 | 35.25106 | -81.57538 | 36989 ft | 535 kts | 44° |
| 2026-05-07 04:03 | 35.29587 | -81.50274 | 37014 ft | 535 kts | 44° |
| 2026-05-07 04:04 | 35.34083 | -81.42955 | 36998 ft | 539 kts | 44° |
| 2026-05-07 04:04 | 35.38573 | -81.35639 | 36999 ft | 543 kts | 44° |
| 2026-05-07 04:05 | 35.43136 | -81.28189 | 36978 ft | 546 kts | 44° |
| 2026-05-07 04:05 | 35.47694 | -81.20724 | 36972 ft | 544 kts | 44° |
| 2026-05-07 04:06 | 35.52187 | -81.13337 | 36972 ft | 535 kts | 44° |
| 2026-05-07 04:06 | 35.56650 | -81.06006 | 36985 ft | 536 kts | 44° |
| 2026-05-07 04:07 | 35.61089 | -80.98708 | 36987 ft | 537 kts | 44° |
| 2026-05-07 04:07 | 35.65563 | -80.91330 | 36991 ft | 538 kts | 44° |
| 2026-05-07 04:08 | 35.70038 | -80.83929 | 36996 ft | 539 kts | 44° |
| 2026-05-07 04:08 | 35.74519 | -80.76504 | 36980 ft | 540 kts | 44° |
| 2026-05-07 04:09 | 35.78996 | -80.69065 | 36963 ft | 541 kts | 44° |
| 2026-05-07 04:09 | 35.83475 | -80.61609 | 36950 ft | 541 kts | 44° |
| 2026-05-07 04:10 | 35.87949 | -80.54143 | 36940 ft | 540 kts | 44° |
| 2026-05-07 04:10 | 35.92353 | -80.46697 | 36934 ft | 541 kts | 45° |
| 2026-05-07 04:11 | 35.96750 | -80.39171 | 36939 ft | 539 kts | 45° |
| 2026-05-07 04:11 | 36.01169 | -80.31705 | 36928 ft | 537 kts | 44° |
| 2026-05-07 04:12 | 36.05601 | -80.24290 | 36944 ft | 535 kts | 44° |
| 2026-05-07 04:12 | 36.10016 | -80.16870 | 36944 ft | 535 kts | 44° |
| 2026-05-07 04:13 | 36.14406 | -80.09458 | 36951 ft | 533 kts | 44° |
| 2026-05-07 04:13 | 36.18777 | -80.02064 | 36939 ft | 532 kts | 44° |
| 2026-05-07 04:14 | 36.23115 | -79.94717 | 36959 ft | 530 kts | 44° |
| 2026-05-07 04:14 | 36.27457 | -79.87349 | 36941 ft | 529 kts | 44° |
| 2026-05-07 04:15 | 36.31788 | -79.79982 | 36956 ft | 528 kts | 44° |
| 2026-05-07 04:15 | 36.36286 | -79.72841 | 36949 ft | 519 kts | 38° |
| 2026-05-07 04:16 | 36.41129 | -79.66263 | 36956 ft | 514 kts | 35° |
| 2026-05-07 04:16 | 36.46156 | -79.60128 | 36946 ft | 505 kts | 30° |
| 2026-05-07 04:17 | 36.51393 | -79.54316 | 36962 ft | 503 kts | 29° |
| 2026-05-07 04:17 | 36.56618 | -79.48607 | 36969 ft | 502 kts | 29° |
| 2026-05-07 04:18 | 36.61904 | -79.42864 | 36988 ft | 507 kts | 29° |
| 2026-05-07 04:18 | 36.67286 | -79.37066 | 36989 ft | 514 kts | 29° |
| 2026-05-07 04:19 | 36.72747 | -79.31228 | 36965 ft | 518 kts | 29° |
| 2026-05-07 04:19 | 36.78137 | -79.25291 | 36939 ft | 527 kts | 34° |
| 2026-05-07 04:20 | 36.83169 | -79.18576 | 36933 ft | 531 kts | 37° |
| 2026-05-07 04:20 | 36.88131 | -79.11712 | 36913 ft | 531 kts | 38° |
| 2026-05-07 04:21 | 36.95381 | -79.01616 | 36903 ft | 528 kts | 38° |
| 2026-05-07 04:21 | 37.00236 | -78.94704 | 36916 ft | 528 kts | 39° |
| 2026-05-07 04:22 | 37.05151 | -78.87949 | 36903 ft | 522 kts | 36° |
| 2026-05-07 04:22 | 37.10125 | -78.81340 | 36915 ft | 519 kts | 36° |
| 2026-05-07 04:23 | 37.15083 | -78.74776 | 36916 ft | 518 kts | 36° |
| 2026-05-07 04:23 | 37.20019 | -78.68246 | 36829 ft | 518 kts | 35° |
| 2026-05-07 04:24 | 37.25015 | -78.61635 | 36921 ft | 525 kts | 35° |
| 2026-05-07 04:24 | 37.30101 | -78.54925 | 36820 ft | 535 kts | 35° |
| 2026-05-07 04:25 | 37.35317 | -78.48101 | 36632 ft | 546 kts | 35° |
| 2026-05-07 04:25 | 37.40584 | -78.41258 | 36421 ft | 550 kts | 35° |
| 2026-05-07 04:26 | 37.43256 | -78.37796 | 36306 ft | 549 kts | 35° |
| 2026-05-07 04:26 | 37.45903 | -78.34366 | 36186 ft | 545 kts | 35° |
| 2026-05-07 04:26 | 37.48538 | -78.30946 | 36068 ft | 542 kts | 35° |
| 2026-05-07 04:26 | 37.51161 | -78.27539 | 35960 ft | 544 kts | 36° |
| 2026-05-07 04:27 | 37.56431 | -78.20695 | 35913 ft | 543 kts | 35° |
| 2026-05-07 04:27 | 37.61701 | -78.13883 | 35897 ft | 543 kts | 35° |
| 2026-05-07 04:28 | 37.66998 | -78.07057 | 35906 ft | 544 kts | 35° |
| 2026-05-07 04:28 | 37.72303 | -78.00227 | 35914 ft | 545 kts | 35° |
| 2026-05-07 04:29 | 37.77587 | -77.93316 | 35913 ft | 547 kts | 36° |
| 2026-05-07 04:29 | 37.82834 | -77.86405 | 35909 ft | 548 kts | 36° |
| 2026-05-07 04:30 | 37.88112 | -77.79437 | 35915 ft | 548 kts | 36° |
| 2026-05-07 04:30 | 37.93395 | -77.72457 | 35910 ft | 548 kts | 36° |
| 2026-05-07 04:31 | 37.98684 | -77.65460 | 35907 ft | 549 kts | 37° |
| 2026-05-07 04:31 | 38.03663 | -77.58102 | 35916 ft | 555 kts | 41° |
| 2026-05-07 04:32 | 38.08536 | -77.50503 | 35896 ft | 555 kts | 41° |
| 2026-05-07 04:32 | 38.13394 | -77.42874 | 35903 ft | 554 kts | 41° |
| 2026-05-07 04:33 | 38.18079 | -77.35063 | 35898 ft | 558 kts | 45° |
| 2026-05-07 04:33 | 38.22517 | -77.26906 | 35905 ft | 561 kts | 48° |
| 2026-05-07 04:34 | 38.26819 | -77.18621 | 35907 ft | 561 kts | 48° |
| 2026-05-07 04:34 | 38.31020 | -77.10304 | 35909 ft | 562 kts | 50° |
| 2026-05-07 04:35 | 38.35143 | -77.01843 | 35911 ft | 562 kts | 50° |
| 2026-05-07 04:35 | 38.39357 | -76.93458 | 35907 ft | 559 kts | 48° |
| 2026-05-07 04:36 | 38.43899 | -76.85487 | 35914 ft | 553 kts | 43° |
| 2026-05-07 04:36 | 38.48612 | -76.77735 | 35904 ft | 552 kts | 42° |
| 2026-05-07 04:37 | 38.53339 | -76.69991 | 35906 ft | 553 kts | 43° |
| 2026-05-07 04:37 | 38.57967 | -76.62213 | 35904 ft | 554 kts | 43° |
| 2026-05-07 04:38 | 38.62607 | -76.54342 | 35899 ft | 554 kts | 43° |
| 2026-05-07 04:38 | 38.67257 | -76.46468 | 35891 ft | 554 kts | 43° |
| 2026-05-07 04:39 | 38.71914 | -76.38586 | 35894 ft | 554 kts | 43° |
| 2026-05-07 04:39 | 38.76533 | -76.30752 | 35889 ft | 554 kts | 43° |
| 2026-05-07 04:40 | 38.81173 | -76.22861 | 35890 ft | 554 kts | 43° |
| 2026-05-07 04:40 | 38.85808 | -76.14955 | 35892 ft | 554 kts | 43° |
| 2026-05-07 04:41 | 38.90438 | -76.07039 | 35895 ft | 554 kts | 43° |
| 2026-05-07 04:41 | 38.95084 | -75.99094 | 35893 ft | 553 kts | 42° |
| 2026-05-07 04:42 | 38.97545 | -75.95448 | 35882 ft | 540 kts | 33° |
| 2026-05-07 04:42 | 39.00252 | -75.92144 | 35905 ft | 535 kts | 31° |
| 2026-05-07 04:42 | 39.05783 | -75.85753 | 35898 ft | 534 kts | 30° |
| 2026-05-07 04:43 | 39.11297 | -75.79333 | 35884 ft | 535 kts | 31° |
| 2026-05-07 04:43 | 39.16782 | -75.72802 | 35879 ft | 536 kts | 31° |
| 2026-05-07 04:44 | 39.22247 | -75.66246 | 35874 ft | 537 kts | 31° |
| 2026-05-07 04:44 | 39.27727 | -75.59672 | 35874 ft | 537 kts | 31° |
| 2026-05-07 04:45 | 39.33177 | -75.53120 | 35881 ft | 538 kts | 31° |
| 2026-05-07 04:45 | 39.37726 | -75.47618 | 35883 ft | 539 kts | 31° |
| 2026-05-07 04:46 | 39.43199 | -75.40978 | 35892 ft | 540 kts | 31° |
| 2026-05-07 04:46 | 39.48677 | -75.34319 | 35889 ft | 540 kts | 31° |
| 2026-05-07 04:47 | 39.54162 | -75.27638 | 35884 ft | 541 kts | 31° |
| 2026-05-07 04:47 | 39.59646 | -75.20943 | 35878 ft | 542 kts | 31° |
| 2026-05-07 04:48 | 39.65134 | -75.14226 | 35887 ft | 542 kts | 31° |
| 2026-05-07 04:48 | 39.70684 | -75.07590 | 35892 ft | 537 kts | 28° |
| 2026-05-07 04:49 | 39.76397 | -75.01375 | 35898 ft | 536 kts | 27° |
| 2026-05-07 04:49 | 39.82042 | -74.95070 | 35880 ft | 539 kts | 28° |
| 2026-05-07 04:50 | 39.87679 | -74.88628 | 35894 ft | 539 kts | 28° |
| 2026-05-07 04:50 | 39.93483 | -74.82580 | 35894 ft | 525 kts | 20° |
| 2026-05-07 04:51 | 39.99520 | -74.77260 | 35898 ft | 524 kts | 20° |
| 2026-05-07 04:51 | 40.05334 | -74.71290 | 35871 ft | 548 kts | 34° |
| 2026-05-07 04:52 | 40.10461 | -74.63796 | 35883 ft | 555 kts | 38° |
| 2026-05-07 04:52 | 40.15544 | -74.56215 | 35883 ft | 554 kts | 37° |
| 2026-05-07 04:53 | 40.20721 | -74.48853 | 35878 ft | 551 kts | 36° |
| 2026-05-07 04:53 | 40.25677 | -74.41029 | 35894 ft | 562 kts | 43° |
| 2026-05-07 04:54 | 40.30406 | -74.32825 | 35893 ft | 564 kts | 43° |
| 2026-05-07 04:54 | 40.35170 | -74.24648 | 35894 ft | 564 kts | 42° |
| 2026-05-07 04:55 | 40.39987 | -74.16537 | 35876 ft | 563 kts | 42° |
| 2026-05-07 04:55 | 40.44704 | -74.08597 | 35546 ft | 546 kts | 42° |
| 2026-05-07 04:56 | 40.47036 | -74.04664 | 35081 ft | 544 kts | 42° |
| 2026-05-07 04:56 | 40.49352 | -74.00760 | 34545 ft | 540 kts | 43° |
| 2026-05-07 04:56 | 40.51659 | -73.96864 | 33953 ft | 537 kts | 43° |
| 2026-05-07 04:56 | 40.53944 | -73.92996 | 33253 ft | 534 kts | 44° |
| 2026-05-07 04:57 | 40.56212 | -73.89151 | 32581 ft | 530 kts | 44° |
| 2026-05-07 04:57 | 40.58465 | -73.85325 | 31989 ft | 526 kts | 44° |
| 2026-05-07 04:57 | 40.60697 | -73.81530 | 31415 ft | 521 kts | 45° |
| 2026-05-07 04:57 | 40.62905 | -73.77771 | 30957 ft | 514 kts | 45° |
| 2026-05-07 04:58 | 40.65154 | -73.74152 | 30556 ft | 508 kts | 41° |
| 2026-05-07 04:58 | 40.67467 | -73.70739 | 30153 ft | 504 kts | 39° |
| 2026-05-07 04:58 | 40.69859 | -73.67337 | 29698 ft | 502 kts | 39° |
| 2026-05-07 04:58 | 40.72235 | -73.63967 | 29251 ft | 500 kts | 39° |
| 2026-05-07 04:59 | 40.74582 | -73.60601 | 28810 ft | 497 kts | 39° |
| 2026-05-07 04:59 | 40.76903 | -73.57236 | 28377 ft | 494 kts | 40° |
| 2026-05-07 04:59 | 40.79193 | -73.53874 | 27953 ft | 491 kts | 40° |
| 2026-05-07 04:59 | 40.81443 | -73.50558 | 27551 ft | 488 kts | 40° |
| 2026-05-07 05:00 | 40.83703 | -73.47228 | 27151 ft | 484 kts | 40° |
| 2026-05-07 05:00 | 40.85944 | -73.43926 | 26869 ft | 480 kts | 40° |
| 2026-05-07 05:00 | 40.88171 | -73.40645 | 26884 ft | 477 kts | 40° |
| 2026-05-07 05:00 | 40.90354 | -73.37419 | 26849 ft | 465 kts | 39° |
| 2026-05-07 05:01 | 40.92477 | -73.34266 | 26842 ft | 452 kts | 39° |
| 2026-05-07 05:01 | 40.94548 | -73.31191 | 26616 ft | 445 kts | 39° |
| 2026-05-07 05:01 | 40.96638 | -73.28110 | 25759 ft | 458 kts | 39° |
| 2026-05-07 05:01 | 40.98785 | -73.24949 | 25391 ft | 458 kts | 39° |
| 2026-05-07 05:02 | 41.00870 | -73.21856 | 25146 ft | 457 kts | 39° |
| 2026-05-07 05:02 | 41.03005 | -73.18689 | 24925 ft | 463 kts | 39° |
| 2026-05-07 05:02 | 41.05155 | -73.15497 | 24689 ft | 467 kts | 40° |
| 2026-05-07 05:02 | 41.07309 | -73.12287 | 24426 ft | 464 kts | 40° |
| 2026-05-07 05:03 | 41.09450 | -73.09087 | 24184 ft | 460 kts | 40° |
| 2026-05-07 05:03 | 41.11566 | -73.05921 | 23951 ft | 456 kts | 40° |
| 2026-05-07 05:03 | 41.13668 | -73.02779 | 23718 ft | 453 kts | 40° |
| 2026-05-07 05:03 | 41.15753 | -72.99664 | 23482 ft | 450 kts | 40° |
| 2026-05-07 05:04 | 41.17800 | -72.96602 | 23222 ft | 447 kts | 40° |
| 2026-05-07 05:04 | 41.19860 | -72.93518 | 22964 ft | 444 kts | 40° |
| 2026-05-07 05:04 | 41.21763 | -72.90272 | 22736 ft | 450 kts | 55° |
| 2026-05-07 05:04 | 41.23217 | -72.86602 | 22733 ft | 449 kts | 59° |
| 2026-05-07 05:05 | 41.24616 | -72.82855 | 22612 ft | 454 kts | 59° |
| 2026-05-07 05:05 | 41.25988 | -72.79134 | 22492 ft | 455 kts | 60° |
| 2026-05-07 05:05 | 41.27387 | -72.75354 | 22375 ft | 452 kts | 59° |
| 2026-05-07 05:05 | 41.28781 | -72.71628 | 22268 ft | 450 kts | 59° |
| 2026-05-07 05:06 | 41.30186 | -72.67907 | 22163 ft | 448 kts | 59° |
| 2026-05-07 05:06 | 41.31585 | -72.64220 | 22061 ft | 446 kts | 59° |
| 2026-05-07 05:06 | 41.32981 | -72.60550 | 21954 ft | 444 kts | 59° |
| 2026-05-07 05:06 | 41.34379 | -72.56874 | 21852 ft | 443 kts | 59° |
| 2026-05-07 05:07 | 41.35769 | -72.53214 | 21744 ft | 442 kts | 59° |
| 2026-05-07 05:07 | 41.37153 | -72.49566 | 21643 ft | 441 kts | 60° |
| 2026-05-07 05:07 | 41.38531 | -72.45925 | 21551 ft | 440 kts | 60° |
| 2026-05-07 05:07 | 41.39887 | -72.42338 | 21445 ft | 439 kts | 60° |
| 2026-05-07 05:08 | 41.41255 | -72.38711 | 21342 ft | 438 kts | 60° |
| 2026-05-07 05:08 | 41.42623 | -72.35082 | 21241 ft | 437 kts | 60° |
| 2026-05-07 05:08 | 41.43985 | -72.31464 | 21145 ft | 436 kts | 60° |
| 2026-05-07 05:08 | 41.45342 | -72.27855 | 21042 ft | 436 kts | 60° |
| 2026-05-07 05:09 | 41.46704 | -72.24229 | 20925 ft | 435 kts | 60° |
| 2026-05-07 05:09 | 41.48059 | -72.20617 | 20814 ft | 435 kts | 61° |
| 2026-05-07 05:09 | 41.49404 | -72.16980 | 20499 ft | 438 kts | 62° |
| 2026-05-07 05:09 | 41.50733 | -72.13344 | 20194 ft | 435 kts | 62° |
| 2026-05-07 05:10 | 41.52035 | -72.09765 | 19892 ft | 431 kts | 63° |
| 2026-05-07 05:10 | 41.53336 | -72.06193 | 19593 ft | 425 kts | 63° |
| 2026-05-07 05:10 | 41.54626 | -72.02657 | 19304 ft | 420 kts | 63° |
| 2026-05-07 05:10 | 41.55888 | -71.99164 | 19006 ft | 416 kts | 66° |
| 2026-05-07 05:11 | 41.56997 | -71.95611 | 18747 ft | 411 kts | 69° |
| 2026-05-07 05:11 | 41.58018 | -71.92079 | 18458 ft | 406 kts | 70° |
| 2026-05-07 05:11 | 41.59039 | -71.88569 | 18183 ft | 402 kts | 70° |
| 2026-05-07 05:11 | 41.60056 | -71.85123 | 17866 ft | 398 kts | 70° |
| 2026-05-07 05:12 | 41.61056 | -71.81738 | 17593 ft | 393 kts | 70° |
| 2026-05-07 05:12 | 41.62049 | -71.78379 | 17450 ft | 386 kts | 70° |
| 2026-05-07 05:12 | 41.63034 | -71.75043 | 17196 ft | 387 kts | 70° |
| 2026-05-07 05:12 | 41.64027 | -71.71671 | 16943 ft | 392 kts | 70° |
| 2026-05-07 05:13 | 41.65031 | -71.68258 | 16674 ft | 395 kts | 70° |
| 2026-05-07 05:13 | 41.66034 | -71.64849 | 16395 ft | 393 kts | 70° |
| 2026-05-07 05:13 | 41.67031 | -71.61452 | 16124 ft | 391 kts | 70° |
| 2026-05-07 05:13 | 41.68021 | -71.58077 | 15835 ft | 389 kts | 70° |
| 2026-05-07 05:14 | 41.69007 | -71.54709 | 15586 ft | 388 kts | 69° |
| 2026-05-07 05:14 | 41.69990 | -71.51350 | 15321 ft | 386 kts | 69° |
| 2026-05-07 05:14 | 41.70963 | -71.48017 | 15051 ft | 385 kts | 69° |
| 2026-05-07 05:14 | 41.71936 | -71.44680 | 14788 ft | 384 kts | 69° |
| 2026-05-07 05:15 | 41.72993 | -71.41409 | 14533 ft | 383 kts | 62° |
| 2026-05-07 05:15 | 41.74308 | -71.38320 | 14276 ft | 381 kts | 57° |
| 2026-05-07 05:15 | 41.75671 | -71.35327 | 14018 ft | 380 kts | 57° |
| 2026-05-07 05:15 | 41.77024 | -71.32285 | 13758 ft | 379 kts | 58° |
| 2026-05-07 05:16 | 41.78346 | -71.29228 | 13478 ft | 379 kts | 59° |
| 2026-05-07 05:16 | 41.79647 | -71.26176 | 13183 ft | 374 kts | 59° |
| 2026-05-07 05:16 | 41.80925 | -71.23166 | 12904 ft | 369 kts | 59° |
| 2026-05-07 05:16 | 41.82190 | -71.20188 | 12647 ft | 364 kts | 59° |
| 2026-05-07 05:17 | 41.83438 | -71.17251 | 12398 ft | 361 kts | 59° |
| 2026-05-07 05:17 | 41.84678 | -71.14332 | 12161 ft | 358 kts | 59° |
| 2026-05-07 05:17 | 41.85902 | -71.11451 | 11912 ft | 352 kts | 58° |
| 2026-05-07 05:17 | 41.87120 | -71.08623 | 11742 ft | 346 kts | 58° |
| 2026-05-07 05:18 | 41.88311 | -71.05872 | 11392 ft | 346 kts | 58° |
| 2026-05-07 05:18 | 41.89518 | -71.03088 | 11023 ft | 343 kts | 58° |
| 2026-05-07 05:18 | 41.90680 | -71.00401 | 10688 ft | 341 kts | 58° |
| 2026-05-07 05:18 | 41.91863 | -70.97659 | 10388 ft | 338 kts | 58° |
| 2026-05-07 05:19 | 41.93028 | -70.94956 | 10098 ft | 330 kts | 58° |
| 2026-05-07 05:19 | 41.94164 | -70.92316 | 9794 ft | 323 kts | 58° |
| 2026-05-07 05:19 | 41.95280 | -70.89719 | 9483 ft | 319 kts | 58° |
| 2026-05-07 05:19 | 41.96385 | -70.87147 | 9175 ft | 318 kts | 58° |
| 2026-05-07 05:20 | 41.97490 | -70.84575 | 8890 ft | 317 kts | 58° |
| 2026-05-07 05:20 | 41.98590 | -70.82019 | 8614 ft | 316 kts | 58° |
| 2026-05-07 05:20 | 41.99689 | -70.79455 | 8329 ft | 317 kts | 59° |
| 2026-05-07 05:20 | 42.00832 | -70.76922 | 8037 ft | 315 kts | 50° |
| 2026-05-07 05:21 | 42.02448 | -70.74987 | 7650 ft | 310 kts | 28° |
| 2026-05-07 05:21 | 42.06055 | -70.71921 | 6852 ft | 303 kts | 28° |
| 2026-05-07 05:21 | 42.07819 | -70.70403 | 6464 ft | 299 kts | 28° |
| 2026-05-07 05:22 | 42.09557 | -70.68896 | 6071 ft | 295 kts | 28° |
| 2026-05-07 05:22 | 42.11356 | -70.67717 | 5727 ft | 280 kts | 5° |
| 2026-05-07 05:22 | 42.13202 | -70.67726 | 5452 ft | 256 kts | 337° |
| 2026-05-07 05:22 | 42.14728 | -70.68645 | 5217 ft | 235 kts | 317° |
| 2026-05-07 05:23 | 42.15926 | -70.70022 | 4975 ft | 219 kts | 303° |
| 2026-05-07 05:23 | 42.16712 | -70.71676 | 4764 ft | 204 kts | 288° |
| 2026-05-07 05:23 | 42.17265 | -70.73419 | 4564 ft | 202 kts | 285° |
| 2026-05-07 05:23 | 42.17837 | -70.75158 | 4358 ft | 208 kts | 295° |
| 2026-05-07 05:24 | 42.18772 | -70.76690 | 4154 ft | 214 kts | 306° |
| 2026-05-07 05:24 | 42.19830 | -70.78122 | 3951 ft | 215 kts | 308° |
| 2026-05-07 05:24 | 42.20854 | -70.79475 | 3920 ft | 197 kts | 308° |
| 2026-05-07 05:24 | 42.21793 | -70.80730 | 3750 ft | 182 kts | 307° |
| 2026-05-07 05:25 | 42.22649 | -70.81881 | 3529 ft | 171 kts | 307° |
| 2026-05-07 05:25 | 42.23471 | -70.82992 | 3305 ft | 163 kts | 304° |
| 2026-05-07 05:25 | 42.24227 | -70.84071 | 3120 ft | 157 kts | 308° |
| 2026-05-07 05:25 | 42.25005 | -70.85085 | 2913 ft | 154 kts | 308° |
| 2026-05-07 05:26 | 42.25754 | -70.86079 | 2705 ft | 149 kts | 308° |
| 2026-05-07 05:26 | 42.26475 | -70.87046 | 2509 ft | 143 kts | 306° |
| 2026-05-07 05:26 | 42.27154 | -70.88014 | 2328 ft | 144 kts | 310° |
| 2026-05-07 05:26 | 42.27880 | -70.88955 | 2135 ft | 145 kts | 309° |
| 2026-05-07 05:27 | 42.28582 | -70.89888 | 1925 ft | 142 kts | 309° |
| 2026-05-07 05:27 | 42.29282 | -70.90828 | 1746 ft | 142 kts | 309° |
| 2026-05-07 05:27 | 42.29979 | -70.91767 | 1556 ft | 140 kts | 310° |
| 2026-05-07 05:27 | 42.30665 | -70.92691 | 1371 ft | 139 kts | 310° |
| 2026-05-07 05:28 | 42.31350 | -70.93616 | 1178 ft | 139 kts | 311° |
| 2026-05-07 05:28 | 42.32045 | -70.94549 | 1013 ft | 145 kts | 311° |
| 2026-05-07 05:28 | 42.32770 | -70.95526 | 790 ft | 147 kts | 311° |
| 2026-05-07 05:28 | 42.33489 | -70.96495 | 580 ft | 145 kts | 314° |
| 2026-05-07 05:29 | 42.34190 | -70.97438 | 397 ft | 142 kts | 312° |
| 2026-05-07 05:29 | 42.34889 | -70.98375 | 234 ft | 143 kts | 311° |
| 2026-05-07 05:29 | 42.35601 | -70.99331 | 41 ft | 144 kts | 310° |
| 2026-05-07 05:29 | 42.36218 | -71.00178 | 24 ft | 99 kts | 315° |
| 2026-05-07 05:30 | 42.36497 | -71.00545 | 27 ft | 12 kts | 310° |
| 2026-05-07 05:30 | 42.36554 | -71.00670 | 27 ft | 16 kts | 296° |
| 2026-05-07 05:30 | 42.36592 | -71.00787 | 28 ft | 8 kts | 279° |
| 2026-05-07 05:30 | 42.36575 | -71.00858 | 28 ft | 8 kts | 229° |
| 2026-05-07 05:31 | 42.36527 | -71.00895 | 28 ft | 8 kts | 195° |
| 2026-05-07 05:31 | 42.36474 | -71.00914 | 28 ft | 8 kts | 195° |
| 2026-05-07 05:31 | 42.36420 | -71.00934 | 27 ft | 9 kts | 195° |
| 2026-05-07 05:31 | 42.36357 | -71.00958 | 26 ft | 10 kts | 197° |
| 2026-05-07 05:32 | 42.36285 | -71.00990 | 23 ft | 11 kts | 198° |
| 2026-05-07 05:32 | 42.36214 | -71.01026 | 23 ft | 11 kts | 201° |
| 2026-05-07 05:32 | 42.36146 | -71.01062 | 23 ft | 10 kts | 201° |
| 2026-05-07 05:32 | 42.36080 | -71.01101 | 23 ft | 11 kts | 206° |
| 2026-05-07 05:33 | 42.36012 | -71.01134 | 22 ft | 10 kts | 199° |
| 2026-05-07 05:33 | 42.35945 | -71.01165 | 24 ft | 10 kts | 199° |
| 2026-05-07 05:33 | 42.35881 | -71.01198 | 24 ft | 10 kts | 207° |
| 2026-05-07 05:33 | 42.35849 | -71.01273 | 23 ft | 10 kts | 269° |
| 2026-05-07 05:34 | 42.35856 | -71.01361 | 25 ft | 9 kts | 278° |
| 2026-05-07 05:34 | 42.35862 | -71.01418 | 28 ft | 9 kts | 278° |
| 2026-05-07 05:34 | 42.35871 | -71.01503 | 25 ft | 9 kts | 280° |
| 2026-05-07 05:34 | 42.35885 | -71.01584 | 27 ft | 9 kts | 283° |
| 2026-05-07 05:35 | 42.35898 | -71.01681 | 28 ft | 12 kts | 281° |
| 2026-05-07 05:35 | 42.35929 | -71.01847 | 29 ft | 15 kts | 298° |
| 2026-05-07 05:35 | 42.35969 | -71.01931 | 26 ft | 16 kts | 301° |
| 2026-05-07 05:35 | 42.36041 | -71.02101 | 24 ft | 15 kts | 301° |
| 2026-05-07 05:36 | 42.36075 | -71.02182 | 24 ft | 14 kts | 302° |
| 2026-05-07 05:36 | 42.36120 | -71.02264 | 25 ft | 6 kts | 306° |
| 2026-05-07 05:36 | 42.36138 | -71.02316 | 25 ft | 6 kts | 291° |
| 2026-05-07 05:36 | 42.36165 | -71.02357 | 26 ft | 6 kts | 328° |
| 2026-05-07 05:37 | 42.36183 | -71.02411 | 26 ft | 6 kts | 280° |
| 2026-05-07 05:37 | 42.36188 | -71.02453 | 28 ft | 0 kts | 282° |